sensor_id;sensor_type;location;lat;lon;timestamp;P1;durP1;ratioP1;P2;durP2;ratioP2
3311;SDS011;1668;49.648;8.570;2023-03-23T00:01:56;3.10;;;2.10;;
3311;SDS011;1668;49.648;8.570;2023-03-23T00:04:23;4.63;;;2.10;;
3311;SDS011;1668;49.648;8.570;2023-03-23T00:06:51;2.90;;;2.13;;
3311;SDS011;1668;49.648;8.570;2023-03-23T00:09:19;4.50;;;2.60;;
3311;SDS011;1668;49.648;8.570;2023-03-23T00:11:49;3.40;;;2.27;;
3311;SDS011;1668;49.648;8.570;2023-03-23T00:14:21;3.77;;;2.00;;
3311;SDS011;1668;49.648;8.570;2023-03-23T00:16:49;6.23;;;1.97;;
3311;SDS011;1668;49.648;8.570;2023-03-23T00:19:17;3.00;;;2.07;;
3311;SDS011;1668;49.648;8.570;2023-03-23T00:21:45;2.20;;;2.00;;
3311;SDS011;1668;49.648;8.570;2023-03-23T00:24:12;4.70;;;2.20;;
3311;SDS011;1668;49.648;8.570;2023-03-23T00:26:43;2.70;;;1.90;;
3311;SDS011;1668;49.648;8.570;2023-03-23T00:29:17;3.30;;;1.93;;
3311;SDS011;1668;49.648;8.570;2023-03-23T00:31:46;4.03;;;2.00;;
3311;SDS011;1668;49.648;8.570;2023-03-23T00:34:14;3.20;;;2.00;;
3311;SDS011;1668;49.648;8.570;2023-03-23T00:36:44;3.90;;;1.80;;
3311;SDS011;1668;49.648;8.570;2023-03-23T00:39:11;3.40;;;2.10;;
3311;SDS011;1668;49.648;8.570;2023-03-23T00:41:42;3.00;;;1.80;;
3311;SDS011;1668;49.648;8.570;2023-03-23T00:44:09;3.20;;;2.00;;
3311;SDS011;1668;49.648;8.570;2023-03-23T00:46:41;2.00;;;1.53;;
3311;SDS011;1668;49.648;8.570;2023-03-23T00:49:10;2.63;;;2.13;;
3311;SDS011;1668;49.648;8.570;2023-03-23T00:51:38;2.67;;;2.10;;
3311;SDS011;1668;49.648;8.570;2023-03-23T00:54:05;2.70;;;1.90;;
3311;SDS011;1668;49.648;8.570;2023-03-23T00:56:32;2.97;;;1.80;;
3311;SDS011;1668;49.648;8.570;2023-03-23T00:59:00;3.23;;;1.73;;
3311;SDS011;1668;49.648;8.570;2023-03-23T01:01:27;4.27;;;2.00;;
3311;SDS011;1668;49.648;8.570;2023-03-23T01:03:54;3.20;;;1.73;;
3311;SDS011;1668;49.648;8.570;2023-03-23T01:06:26;2.47;;;1.60;;
3311;SDS011;1668;49.648;8.570;2023-03-23T01:08:55;2.30;;;1.70;;
3311;SDS011;1668;49.648;8.570;2023-03-23T01:11:23;2.90;;;2.07;;
3311;SDS011;1668;49.648;8.570;2023-03-23T01:13:50;3.00;;;1.80;;
3311;SDS011;1668;49.648;8.570;2023-03-23T01:16:18;4.17;;;2.10;;
3311;SDS011;1668;49.648;8.570;2023-03-23T01:18:46;4.40;;;1.70;;
3311;SDS011;1668;49.648;8.570;2023-03-23T01:21:13;2.40;;;1.80;;
3311;SDS011;1668;49.648;8.570;2023-03-23T01:23:42;2.43;;;1.80;;
3311;SDS011;1668;49.648;8.570;2023-03-23T01:26:10;2.90;;;1.90;;
3311;SDS011;1668;49.648;8.570;2023-03-23T01:28:38;2.37;;;1.30;;
3311;SDS011;1668;49.648;8.570;2023-03-23T01:31:05;4.93;;;2.00;;
3311;SDS011;1668;49.648;8.570;2023-03-23T01:33:35;2.40;;;1.90;;
3311;SDS011;1668;49.648;8.570;2023-03-23T01:36:02;3.90;;;2.00;;
3311;SDS011;1668;49.648;8.570;2023-03-23T01:38:31;3.80;;;1.80;;
3311;SDS011;1668;49.648;8.570;2023-03-23T01:40:58;3.80;;;2.43;;
3311;SDS011;1668;49.648;8.570;2023-03-23T01:43:25;3.93;;;2.20;;
3311;SDS011;1668;49.648;8.570;2023-03-23T01:45:52;3.37;;;2.00;;
3311;SDS011;1668;49.648;8.570;2023-03-23T01:48:20;5.80;;;1.83;;
3311;SDS011;1668;49.648;8.570;2023-03-23T01:50:54;4.80;;;2.10;;
3311;SDS011;1668;49.648;8.570;2023-03-23T01:53:24;4.23;;;2.10;;
3311;SDS011;1668;49.648;8.570;2023-03-23T01:55:54;4.87;;;1.73;;
3311;SDS011;1668;49.648;8.570;2023-03-23T01:58:26;3.30;;;2.00;;
3311;SDS011;1668;49.648;8.570;2023-03-23T02:00:56;3.27;;;2.20;;
3311;SDS011;1668;49.648;8.570;2023-03-23T02:03:25;2.13;;;1.73;;
3311;SDS011;1668;49.648;8.570;2023-03-23T02:05:55;2.33;;;1.57;;
3311;SDS011;1668;49.648;8.570;2023-03-23T02:08:24;3.10;;;1.60;;
3311;SDS011;1668;49.648;8.570;2023-03-23T02:10:53;2.97;;;1.80;;
3311;SDS011;1668;49.648;8.570;2023-03-23T02:13:20;2.70;;;1.80;;
3311;SDS011;1668;49.648;8.570;2023-03-23T02:15:49;3.73;;;2.07;;
3311;SDS011;1668;49.648;8.570;2023-03-23T02:18:27;5.97;;;1.80;;
3311;SDS011;1668;49.648;8.570;2023-03-23T02:21:19;2.40;;;1.70;;
3311;SDS011;1668;49.648;8.570;2023-03-23T02:24:29;2.93;;;1.73;;
3311;SDS011;1668;49.648;8.570;2023-03-23T02:27:17;3.40;;;1.60;;
3311;SDS011;1668;49.648;8.570;2023-03-23T02:30:11;2.17;;;1.60;;
3311;SDS011;1668;49.648;8.570;2023-03-23T02:33:06;3.47;;;1.70;;
3311;SDS011;1668;49.648;8.570;2023-03-23T02:35:48;2.10;;;1.53;;
3311;SDS011;1668;49.648;8.570;2023-03-23T02:38:20;3.33;;;1.63;;
3311;SDS011;1668;49.648;8.570;2023-03-23T02:40:50;2.57;;;1.70;;
3311;SDS011;1668;49.648;8.570;2023-03-23T02:43:17;2.70;;;1.70;;
3311;SDS011;1668;49.648;8.570;2023-03-23T02:45:47;5.10;;;1.57;;
3311;SDS011;1668;49.648;8.570;2023-03-23T02:48:16;2.97;;;2.00;;
3311;SDS011;1668;49.648;8.570;2023-03-23T02:50:49;2.50;;;1.53;;
3311;SDS011;1668;49.648;8.570;2023-03-23T02:53:19;2.07;;;1.60;;
3311;SDS011;1668;49.648;8.570;2023-03-23T02:55:49;2.53;;;1.73;;
3311;SDS011;1668;49.648;8.570;2023-03-23T02:58:20;5.70;;;1.90;;
3311;SDS011;1668;49.648;8.570;2023-03-23T03:00:48;2.80;;;1.70;;
3311;SDS011;1668;49.648;8.570;2023-03-23T03:03:17;1.70;;;1.47;;
3311;SDS011;1668;49.648;8.570;2023-03-23T03:05:49;2.10;;;1.60;;
3311;SDS011;1668;49.648;8.570;2023-03-23T03:08:24;3.47;;;2.00;;
3311;SDS011;1668;49.648;8.570;2023-03-23T03:11:05;3.23;;;1.57;;
3311;SDS011;1668;49.648;8.570;2023-03-23T03:13:36;5.00;;;1.70;;
3311;SDS011;1668;49.648;8.570;2023-03-23T03:16:14;2.07;;;1.50;;
3311;SDS011;1668;49.648;8.570;2023-03-23T03:18:50;4.50;;;1.83;;
3311;SDS011;1668;49.648;8.570;2023-03-23T03:21:21;2.47;;;1.60;;
3311;SDS011;1668;49.648;8.570;2023-03-23T03:23:52;4.30;;;1.73;;
3311;SDS011;1668;49.648;8.570;2023-03-23T03:26:21;2.70;;;1.53;;
3311;SDS011;1668;49.648;8.570;2023-03-23T03:28:52;2.37;;;1.30;;
3311;SDS011;1668;49.648;8.570;2023-03-23T03:31:21;3.40;;;1.50;;
3311;SDS011;1668;49.648;8.570;2023-03-23T03:33:51;2.90;;;1.50;;
3311;SDS011;1668;49.648;8.570;2023-03-23T03:36:19;2.47;;;1.60;;
3311;SDS011;1668;49.648;8.570;2023-03-23T03:38:49;2.50;;;1.83;;
3311;SDS011;1668;49.648;8.570;2023-03-23T03:41:17;4.50;;;1.90;;
3311;SDS011;1668;49.648;8.570;2023-03-23T03:43:44;2.20;;;1.53;;
3311;SDS011;1668;49.648;8.570;2023-03-23T03:46:11;2.90;;;1.60;;
3311;SDS011;1668;49.648;8.570;2023-03-23T03:48:38;6.73;;;1.67;;
3311;SDS011;1668;49.648;8.570;2023-03-23T03:51:06;3.67;;;1.50;;
3311;SDS011;1668;49.648;8.570;2023-03-23T03:53:33;3.33;;;1.47;;
3311;SDS011;1668;49.648;8.570;2023-03-23T03:56:00;2.33;;;1.67;;
3311;SDS011;1668;49.648;8.570;2023-03-23T03:58:27;2.10;;;1.60;;
3311;SDS011;1668;49.648;8.570;2023-03-23T04:00:57;2.90;;;1.70;;
3311;SDS011;1668;49.648;8.570;2023-03-23T04:03:25;3.73;;;1.83;;
3311;SDS011;1668;49.648;8.570;2023-03-23T04:05:52;3.50;;;1.77;;
3311;SDS011;1668;49.648;8.570;2023-03-23T04:08:21;2.90;;;1.87;;
3311;SDS011;1668;49.648;8.570;2023-03-23T04:10:48;2.53;;;1.70;;
3311;SDS011;1668;49.648;8.570;2023-03-23T04:13:16;1.70;;;1.57;;
3311;SDS011;1668;49.648;8.570;2023-03-23T04:15:43;2.73;;;1.80;;
3311;SDS011;1668;49.648;8.570;2023-03-23T04:18:11;2.73;;;1.80;;
3311;SDS011;1668;49.648;8.570;2023-03-23T04:20:40;2.23;;;1.50;;
3311;SDS011;1668;49.648;8.570;2023-03-23T04:23:07;1.60;;;1.43;;
3311;SDS011;1668;49.648;8.570;2023-03-23T04:25:35;3.83;;;1.90;;
3311;SDS011;1668;49.648;8.570;2023-03-23T04:28:02;2.73;;;1.40;;
3311;SDS011;1668;49.648;8.570;2023-03-23T04:30:29;2.40;;;1.80;;
3311;SDS011;1668;49.648;8.570;2023-03-23T04:32:57;3.27;;;2.10;;
3311;SDS011;1668;49.648;8.570;2023-03-23T04:35:26;3.10;;;2.00;;
3311;SDS011;1668;49.648;8.570;2023-03-23T04:37:54;3.77;;;1.73;;
3311;SDS011;1668;49.648;8.570;2023-03-23T04:40:22;2.53;;;2.00;;
3311;SDS011;1668;49.648;8.570;2023-03-23T04:42:51;3.10;;;2.10;;
3311;SDS011;1668;49.648;8.570;2023-03-23T04:45:22;6.20;;;2.00;;
3311;SDS011;1668;49.648;8.570;2023-03-23T04:47:49;4.80;;;1.87;;
3311;SDS011;1668;49.648;8.570;2023-03-23T04:50:22;3.00;;;1.90;;
3311;SDS011;1668;49.648;8.570;2023-03-23T04:52:51;3.30;;;1.70;;
3311;SDS011;1668;49.648;8.570;2023-03-23T04:55:21;2.60;;;1.67;;
3311;SDS011;1668;49.648;8.570;2023-03-23T04:57:48;2.50;;;1.63;;
3311;SDS011;1668;49.648;8.570;2023-03-23T05:00:17;3.30;;;1.80;;
3311;SDS011;1668;49.648;8.570;2023-03-23T05:02:46;1.53;;;1.30;;
3311;SDS011;1668;49.648;8.570;2023-03-23T05:05:16;2.17;;;1.70;;
3311;SDS011;1668;49.648;8.570;2023-03-23T05:07:44;3.40;;;1.70;;
3311;SDS011;1668;49.648;8.570;2023-03-23T05:10:12;3.13;;;1.83;;
3311;SDS011;1668;49.648;8.570;2023-03-23T05:12:40;4.00;;;1.80;;
3311;SDS011;1668;49.648;8.570;2023-03-23T05:15:07;4.00;;;2.10;;
3311;SDS011;1668;49.648;8.570;2023-03-23T05:17:37;3.53;;;1.80;;
3311;SDS011;1668;49.648;8.570;2023-03-23T05:20:06;2.80;;;1.90;;
3311;SDS011;1668;49.648;8.570;2023-03-23T05:22:36;3.10;;;2.13;;
3311;SDS011;1668;49.648;8.570;2023-03-23T05:25:03;5.70;;;1.60;;
3311;SDS011;1668;49.648;8.570;2023-03-23T05:27:33;3.77;;;1.93;;
3311;SDS011;1668;49.648;8.570;2023-03-23T05:30:00;2.40;;;1.80;;
3311;SDS011;1668;49.648;8.570;2023-03-23T05:32:28;2.80;;;1.80;;
3311;SDS011;1668;49.648;8.570;2023-03-23T05:34:57;2.70;;;1.30;;
3311;SDS011;1668;49.648;8.570;2023-03-23T05:37:25;2.10;;;1.30;;
3311;SDS011;1668;49.648;8.570;2023-03-23T05:39:57;1.83;;;1.60;;
3311;SDS011;1668;49.648;8.570;2023-03-23T05:42:28;2.10;;;1.43;;
3311;SDS011;1668;49.648;8.570;2023-03-23T05:44:55;2.10;;;1.50;;
3311;SDS011;1668;49.648;8.570;2023-03-23T05:47:23;1.70;;;1.20;;
3311;SDS011;1668;49.648;8.570;2023-03-23T05:49:50;3.40;;;1.30;;
3311;SDS011;1668;49.648;8.570;2023-03-23T05:52:18;3.57;;;1.30;;
3311;SDS011;1668;49.648;8.570;2023-03-23T05:54:45;2.77;;;1.40;;
3311;SDS011;1668;49.648;8.570;2023-03-23T05:57:13;6.17;;;1.37;;
3311;SDS011;1668;49.648;8.570;2023-03-23T05:59:40;2.03;;;1.30;;
3311;SDS011;1668;49.648;8.570;2023-03-23T06:02:07;1.90;;;1.40;;
3311;SDS011;1668;49.648;8.570;2023-03-23T06:04:35;2.90;;;1.57;;
3311;SDS011;1668;49.648;8.570;2023-03-23T06:07:03;2.87;;;1.33;;
3311;SDS011;1668;49.648;8.570;2023-03-23T06:09:31;2.47;;;1.50;;
3311;SDS011;1668;49.648;8.570;2023-03-23T06:11:59;2.03;;;1.40;;
3311;SDS011;1668;49.648;8.570;2023-03-23T06:14:26;2.63;;;1.87;;
3311;SDS011;1668;49.648;8.570;2023-03-23T06:16:52;1.93;;;1.40;;
3311;SDS011;1668;49.648;8.570;2023-03-23T06:19:20;2.17;;;1.30;;
3311;SDS011;1668;49.648;8.570;2023-03-23T06:21:48;4.10;;;1.70;;
3311;SDS011;1668;49.648;8.570;2023-03-23T06:24:14;1.80;;;1.30;;
3311;SDS011;1668;49.648;8.570;2023-03-23T06:26:43;2.10;;;1.37;;
3311;SDS011;1668;49.648;8.570;2023-03-23T06:29:10;2.00;;;1.43;;
3311;SDS011;1668;49.648;8.570;2023-03-23T06:31:37;2.33;;;1.30;;
3311;SDS011;1668;49.648;8.570;2023-03-23T06:34:06;2.83;;;1.60;;
3311;SDS011;1668;49.648;8.570;2023-03-23T06:36:34;2.47;;;1.60;;
3311;SDS011;1668;49.648;8.570;2023-03-23T06:39:02;2.30;;;1.33;;
3311;SDS011;1668;49.648;8.570;2023-03-23T06:41:30;4.27;;;1.60;;
3311;SDS011;1668;49.648;8.570;2023-03-23T06:43:59;2.27;;;1.33;;
3311;SDS011;1668;49.648;8.570;2023-03-23T06:46:26;2.80;;;1.47;;
3311;SDS011;1668;49.648;8.570;2023-03-23T06:48:53;1.63;;;1.33;;
3311;SDS011;1668;49.648;8.570;2023-03-23T06:51:20;1.97;;;1.40;;
3311;SDS011;1668;49.648;8.570;2023-03-23T06:53:47;2.20;;;1.70;;
3311;SDS011;1668;49.648;8.570;2023-03-23T06:56:14;1.70;;;1.30;;
3311;SDS011;1668;49.648;8.570;2023-03-23T06:58:41;2.43;;;1.37;;
3311;SDS011;1668;49.648;8.570;2023-03-23T07:01:11;1.80;;;1.20;;
3311;SDS011;1668;49.648;8.570;2023-03-23T07:03:40;2.00;;;1.40;;
3311;SDS011;1668;49.648;8.570;2023-03-23T07:06:07;1.87;;;1.20;;
3311;SDS011;1668;49.648;8.570;2023-03-23T07:08:35;2.17;;;1.50;;
3311;SDS011;1668;49.648;8.570;2023-03-23T07:11:03;2.10;;;1.50;;
3311;SDS011;1668;49.648;8.570;2023-03-23T07:13:30;1.83;;;1.30;;
3311;SDS011;1668;49.648;8.570;2023-03-23T07:15:57;2.10;;;1.23;;
3311;SDS011;1668;49.648;8.570;2023-03-23T07:18:26;1.30;;;1.20;;
3311;SDS011;1668;49.648;8.570;2023-03-23T07:20:53;3.80;;;1.50;;
3311;SDS011;1668;49.648;8.570;2023-03-23T07:23:20;2.00;;;1.40;;
3311;SDS011;1668;49.648;8.570;2023-03-23T07:25:47;1.60;;;1.40;;
3311;SDS011;1668;49.648;8.570;2023-03-23T07:28:14;1.83;;;1.30;;
3311;SDS011;1668;49.648;8.570;2023-03-23T07:30:42;2.03;;;1.17;;
3311;SDS011;1668;49.648;8.570;2023-03-23T07:33:09;1.90;;;1.50;;
3311;SDS011;1668;49.648;8.570;2023-03-23T07:35:37;2.03;;;1.37;;
3311;SDS011;1668;49.648;8.570;2023-03-23T07:38:04;2.07;;;1.30;;
3311;SDS011;1668;49.648;8.570;2023-03-23T07:40:32;1.90;;;1.50;;
3311;SDS011;1668;49.648;8.570;2023-03-23T07:43:00;1.60;;;1.43;;
3311;SDS011;1668;49.648;8.570;2023-03-23T07:45:28;1.87;;;1.17;;
3311;SDS011;1668;49.648;8.570;2023-03-23T07:47:55;3.10;;;1.20;;
3311;SDS011;1668;49.648;8.570;2023-03-23T07:50:22;1.50;;;1.17;;
3311;SDS011;1668;49.648;8.570;2023-03-23T07:52:53;1.33;;;1.13;;
3311;SDS011;1668;49.648;8.570;2023-03-23T07:55:20;2.03;;;1.30;;
3311;SDS011;1668;49.648;8.570;2023-03-23T07:57:50;1.67;;;1.30;;
3311;SDS011;1668;49.648;8.570;2023-03-23T08:00:18;1.80;;;1.30;;
3311;SDS011;1668;49.648;8.570;2023-03-23T08:02:48;2.10;;;1.23;;
3311;SDS011;1668;49.648;8.570;2023-03-23T08:05:17;2.17;;;1.40;;
3311;SDS011;1668;49.648;8.570;2023-03-23T08:07:45;2.67;;;1.27;;
3311;SDS011;1668;49.648;8.570;2023-03-23T08:10:14;2.53;;;1.10;;
3311;SDS011;1668;49.648;8.570;2023-03-23T08:12:42;1.87;;;1.17;;
3311;SDS011;1668;49.648;8.570;2023-03-23T08:15:11;1.40;;;1.00;;
3311;SDS011;1668;49.648;8.570;2023-03-23T08:17:39;2.03;;;1.10;;
3311;SDS011;1668;49.648;8.570;2023-03-23T08:20:07;2.70;;;1.27;;
3311;SDS011;1668;49.648;8.570;2023-03-23T08:22:38;1.73;;;1.23;;
3311;SDS011;1668;49.648;8.570;2023-03-23T08:25:06;1.83;;;1.37;;
3311;SDS011;1668;49.648;8.570;2023-03-23T08:27:37;1.20;;;1.10;;
3311;SDS011;1668;49.648;8.570;2023-03-23T08:30:09;2.27;;;1.30;;
3311;SDS011;1668;49.648;8.570;2023-03-23T08:32:37;2.10;;;1.30;;
3311;SDS011;1668;49.648;8.570;2023-03-23T08:35:05;1.83;;;1.10;;
3311;SDS011;1668;49.648;8.570;2023-03-23T08:37:33;2.03;;;1.17;;
3311;SDS011;1668;49.648;8.570;2023-03-23T08:40:01;3.13;;;1.40;;
3311;SDS011;1668;49.648;8.570;2023-03-23T08:42:34;3.13;;;1.20;;
3311;SDS011;1668;49.648;8.570;2023-03-23T08:45:02;2.20;;;1.67;;
3311;SDS011;1668;49.648;8.570;2023-03-23T08:47:30;2.30;;;1.03;;
3311;SDS011;1668;49.648;8.570;2023-03-23T08:49:57;2.33;;;1.30;;
3311;SDS011;1668;49.648;8.570;2023-03-23T08:52:25;2.47;;;1.40;;
3311;SDS011;1668;49.648;8.570;2023-03-23T08:54:52;2.53;;;1.30;;
3311;SDS011;1668;49.648;8.570;2023-03-23T08:57:18;2.03;;;1.30;;
3311;SDS011;1668;49.648;8.570;2023-03-23T08:59:45;1.60;;;1.37;;
3311;SDS011;1668;49.648;8.570;2023-03-23T09:02:14;2.70;;;1.23;;
3311;SDS011;1668;49.648;8.570;2023-03-23T09:04:41;4.90;;;1.47;;
3311;SDS011;1668;49.648;8.570;2023-03-23T09:07:09;1.90;;;1.20;;
3311;SDS011;1668;49.648;8.570;2023-03-23T09:09:37;2.77;;;1.20;;
3311;SDS011;1668;49.648;8.570;2023-03-23T09:12:05;1.50;;;1.20;;
3311;SDS011;1668;49.648;8.570;2023-03-23T09:14:33;1.83;;;1.50;;
3311;SDS011;1668;49.648;8.570;2023-03-23T09:17:01;2.10;;;1.20;;
3311;SDS011;1668;49.648;8.570;2023-03-23T09:19:29;1.57;;;1.20;;
3311;SDS011;1668;49.648;8.570;2023-03-23T09:21:58;2.40;;;1.30;;
3311;SDS011;1668;49.648;8.570;2023-03-23T09:24:25;1.80;;;1.10;;
3311;SDS011;1668;49.648;8.570;2023-03-23T09:26:52;2.10;;;1.20;;
3311;SDS011;1668;49.648;8.570;2023-03-23T09:29:19;1.87;;;1.30;;
3311;SDS011;1668;49.648;8.570;2023-03-23T09:31:46;1.30;;;1.10;;
3311;SDS011;1668;49.648;8.570;2023-03-23T09:34:13;1.93;;;1.20;;
3311;SDS011;1668;49.648;8.570;2023-03-23T09:36:43;6.43;;;1.50;;
3311;SDS011;1668;49.648;8.570;2023-03-23T09:39:11;4.83;;;1.20;;
3311;SDS011;1668;49.648;8.570;2023-03-23T09:41:51;1.50;;;1.10;;
3311;SDS011;1668;49.648;8.570;2023-03-23T09:44:31;1.73;;;1.10;;
3311;SDS011;1668;49.648;8.570;2023-03-23T09:47:08;2.33;;;1.33;;
3311;SDS011;1668;49.648;8.570;2023-03-23T09:49:41;3.77;;;1.03;;
3311;SDS011;1668;49.648;8.570;2023-03-23T09:52:13;1.73;;;1.23;;
3311;SDS011;1668;49.648;8.570;2023-03-23T09:54:42;2.10;;;1.30;;
3311;SDS011;1668;49.648;8.570;2023-03-23T09:57:11;1.87;;;1.00;;
3311;SDS011;1668;49.648;8.570;2023-03-23T09:59:45;1.73;;;1.10;;
3311;SDS011;1668;49.648;8.570;2023-03-23T10:02:18;2.13;;;1.13;;
3311;SDS011;1668;49.648;8.570;2023-03-23T10:04:50;1.60;;;1.00;;
3311;SDS011;1668;49.648;8.570;2023-03-23T10:07:20;1.43;;;1.00;;
3311;SDS011;1668;49.648;8.570;2023-03-23T10:09:55;1.30;;;1.00;;
3311;SDS011;1668;49.648;8.570;2023-03-23T10:12:25;1.60;;;0.90;;
3311;SDS011;1668;49.648;8.570;2023-03-23T10:15:09;3.63;;;1.00;;
3311;SDS011;1668;49.648;8.570;2023-03-23T10:17:42;1.43;;;1.03;;
3311;SDS011;1668;49.648;8.570;2023-03-23T10:20:17;1.50;;;1.00;;
3311;SDS011;1668;49.648;8.570;2023-03-23T10:23:02;1.30;;;1.07;;
3311;SDS011;1668;49.648;8.570;2023-03-23T10:25:40;2.90;;;1.00;;
3311;SDS011;1668;49.648;8.570;2023-03-23T10:28:10;6.63;;;1.30;;
3311;SDS011;1668;49.648;8.570;2023-03-23T10:30:39;1.60;;;1.07;;
3311;SDS011;1668;49.648;8.570;2023-03-23T10:33:10;3.80;;;1.43;;
3311;SDS011;1668;49.648;8.570;2023-03-23T10:35:43;1.73;;;1.37;;
3311;SDS011;1668;49.648;8.570;2023-03-23T10:38:14;2.33;;;1.40;;
3311;SDS011;1668;49.648;8.570;2023-03-23T10:40:48;2.40;;;1.13;;
3311;SDS011;1668;49.648;8.570;2023-03-23T10:43:17;1.70;;;1.30;;
3311;SDS011;1668;49.648;8.570;2023-03-23T10:45:45;2.10;;;1.17;;
3311;SDS011;1668;49.648;8.570;2023-03-23T10:48:18;2.40;;;1.47;;
3311;SDS011;1668;49.648;8.570;2023-03-23T10:50:50;1.90;;;1.20;;
3311;SDS011;1668;49.648;8.570;2023-03-23T10:53:26;1.73;;;1.20;;
3311;SDS011;1668;49.648;8.570;2023-03-23T10:55:57;2.27;;;1.50;;
3311;SDS011;1668;49.648;8.570;2023-03-23T10:58:26;2.57;;;1.70;;
3311;SDS011;1668;49.648;8.570;2023-03-23T11:00:54;2.93;;;1.60;;
3311;SDS011;1668;49.648;8.570;2023-03-23T11:03:27;2.70;;;1.70;;
3311;SDS011;1668;49.648;8.570;2023-03-23T11:06:05;3.80;;;1.53;;
3311;SDS011;1668;49.648;8.570;2023-03-23T11:08:36;3.23;;;1.50;;
3311;SDS011;1668;49.648;8.570;2023-03-23T11:11:14;4.43;;;1.47;;
3311;SDS011;1668;49.648;8.570;2023-03-23T11:13:43;8.27;;;1.50;;
3311;SDS011;1668;49.648;8.570;2023-03-23T11:16:21;3.27;;;1.63;;
3311;SDS011;1668;49.648;8.570;2023-03-23T11:18:48;1.67;;;1.17;;
3311;SDS011;1668;49.648;8.570;2023-03-23T11:21:17;2.97;;;1.30;;
3311;SDS011;1668;49.648;8.570;2023-03-23T11:23:48;1.73;;;1.40;;
3311;SDS011;1668;49.648;8.570;2023-03-23T11:26:18;1.93;;;1.10;;
3311;SDS011;1668;49.648;8.570;2023-03-23T11:28:51;2.13;;;1.20;;
3311;SDS011;1668;49.648;8.570;2023-03-23T11:31:21;1.50;;;1.20;;
3311;SDS011;1668;49.648;8.570;2023-03-23T11:33:51;1.57;;;1.20;;
3311;SDS011;1668;49.648;8.570;2023-03-23T11:36:20;1.23;;;1.00;;
3311;SDS011;1668;49.648;8.570;2023-03-23T11:38:51;1.60;;;1.17;;
3311;SDS011;1668;49.648;8.570;2023-03-23T11:41:22;1.90;;;1.20;;
3311;SDS011;1668;49.648;8.570;2023-03-23T11:43:51;1.30;;;1.10;;
3311;SDS011;1668;49.648;8.570;2023-03-23T11:46:22;2.83;;;0.90;;
3311;SDS011;1668;49.648;8.570;2023-03-23T11:49:08;1.83;;;1.10;;
3311;SDS011;1668;49.648;8.570;2023-03-23T11:51:42;4.23;;;1.00;;
3311;SDS011;1668;49.648;8.570;2023-03-23T11:54:16;1.40;;;1.20;;
3311;SDS011;1668;49.648;8.570;2023-03-23T11:56:50;1.87;;;1.30;;
3311;SDS011;1668;49.648;8.570;2023-03-23T11:59:18;1.30;;;1.10;;
3311;SDS011;1668;49.648;8.570;2023-03-23T12:01:53;4.03;;;1.30;;
3311;SDS011;1668;49.648;8.570;2023-03-23T12:07:31;1.90;;;1.20;;
3311;SDS011;1668;49.648;8.570;2023-03-23T12:10:10;1.40;;;1.20;;
3311;SDS011;1668;49.648;8.570;2023-03-23T12:12:49;1.40;;;1.10;;
3311;SDS011;1668;49.648;8.570;2023-03-23T12:15:25;1.97;;;1.00;;
3311;SDS011;1668;49.648;8.570;2023-03-23T12:17:58;2.17;;;1.30;;
3311;SDS011;1668;49.648;8.570;2023-03-23T12:20:34;3.50;;;1.10;;
3311;SDS011;1668;49.648;8.570;2023-03-23T12:23:14;1.40;;;0.93;;
3311;SDS011;1668;49.648;8.570;2023-03-23T12:26:03;1.60;;;1.00;;
3311;SDS011;1668;49.648;8.570;2023-03-23T12:28:42;1.23;;;1.13;;
3311;SDS011;1668;49.648;8.570;2023-03-23T12:31:23;1.33;;;1.00;;
3311;SDS011;1668;49.648;8.570;2023-03-23T12:33:54;5.83;;;1.20;;
3311;SDS011;1668;49.648;8.570;2023-03-23T12:36:30;2.33;;;1.10;;
3311;SDS011;1668;49.648;8.570;2023-03-23T12:42:11;2.13;;;1.10;;
3311;SDS011;1668;49.648;8.570;2023-03-23T12:44:43;1.57;;;0.90;;
3311;SDS011;1668;49.648;8.570;2023-03-23T12:47:22;0.87;;;0.70;;
3311;SDS011;1668;49.648;8.570;2023-03-23T12:49:58;1.50;;;1.00;;
3311;SDS011;1668;49.648;8.570;2023-03-23T12:52:30;2.10;;;1.00;;
3311;SDS011;1668;49.648;8.570;2023-03-23T12:55:02;2.70;;;0.97;;
3311;SDS011;1668;49.648;8.570;2023-03-23T12:57:37;1.63;;;1.00;;
3311;SDS011;1668;49.648;8.570;2023-03-23T13:00:12;2.03;;;0.80;;
3311;SDS011;1668;49.648;8.570;2023-03-23T13:02:44;1.10;;;0.90;;
3311;SDS011;1668;49.648;8.570;2023-03-23T13:05:26;1.90;;;1.40;;
3311;SDS011;1668;49.648;8.570;2023-03-23T13:07:57;1.40;;;1.00;;
3311;SDS011;1668;49.648;8.570;2023-03-23T13:10:28;1.17;;;0.93;;
3311;SDS011;1668;49.648;8.570;2023-03-23T13:13:00;1.10;;;0.80;;
3311;SDS011;1668;49.648;8.570;2023-03-23T13:15:31;1.00;;;0.90;;
3311;SDS011;1668;49.648;8.570;2023-03-23T13:18:04;0.90;;;0.80;;
3311;SDS011;1668;49.648;8.570;2023-03-23T13:20:43;1.90;;;1.03;;
3311;SDS011;1668;49.648;8.570;2023-03-23T13:23:22;1.60;;;0.80;;
3311;SDS011;1668;49.648;8.570;2023-03-23T13:25:52;3.43;;;1.20;;
3311;SDS011;1668;49.648;8.570;2023-03-23T13:28:25;1.27;;;0.90;;
3311;SDS011;1668;49.648;8.570;2023-03-23T13:30:57;1.47;;;0.90;;
3311;SDS011;1668;49.648;8.570;2023-03-23T13:33:28;2.17;;;1.03;;
3311;SDS011;1668;49.648;8.570;2023-03-23T13:36:01;2.57;;;1.27;;
3311;SDS011;1668;49.648;8.570;2023-03-23T13:38:35;1.67;;;0.90;;
3311;SDS011;1668;49.648;8.570;2023-03-23T13:41:09;1.20;;;0.90;;
3311;SDS011;1668;49.648;8.570;2023-03-23T13:43:39;2.17;;;1.27;;
3311;SDS011;1668;49.648;8.570;2023-03-23T13:46:12;3.47;;;1.20;;
3311;SDS011;1668;49.648;8.570;2023-03-23T13:48:51;2.30;;;1.20;;
3311;SDS011;1668;49.648;8.570;2023-03-23T13:51:35;1.80;;;1.40;;
3311;SDS011;1668;49.648;8.570;2023-03-23T13:54:19;1.73;;;1.07;;
3311;SDS011;1668;49.648;8.570;2023-03-23T13:56:53;1.10;;;0.70;;
3311;SDS011;1668;49.648;8.570;2023-03-23T13:59:31;1.20;;;1.10;;
3311;SDS011;1668;49.648;8.570;2023-03-23T14:04:56;1.20;;;0.90;;
3311;SDS011;1668;49.648;8.570;2023-03-23T14:07:23;1.00;;;0.70;;
3311;SDS011;1668;49.648;8.570;2023-03-23T14:09:50;2.93;;;1.00;;
3311;SDS011;1668;49.648;8.570;2023-03-23T14:12:19;1.73;;;0.87;;
3311;SDS011;1668;49.648;8.570;2023-03-23T14:14:50;1.83;;;1.10;;
3311;SDS011;1668;49.648;8.570;2023-03-23T14:17:23;5.10;;;0.90;;
3311;SDS011;1668;49.648;8.570;2023-03-23T14:19:52;1.47;;;1.10;;
3311;SDS011;1668;49.648;8.570;2023-03-23T14:22:22;2.10;;;0.87;;
3311;SDS011;1668;49.648;8.570;2023-03-23T14:24:52;1.53;;;1.03;;
3311;SDS011;1668;49.648;8.570;2023-03-23T14:27:26;3.30;;;1.13;;
3311;SDS011;1668;49.648;8.570;2023-03-23T14:29:58;3.50;;;1.40;;
3311;SDS011;1668;49.648;8.570;2023-03-23T14:32:27;1.27;;;0.97;;
3311;SDS011;1668;49.648;8.570;2023-03-23T14:34:56;1.83;;;0.80;;
3311;SDS011;1668;49.648;8.570;2023-03-23T14:37:23;3.20;;;1.07;;
3311;SDS011;1668;49.648;8.570;2023-03-23T14:39:51;3.37;;;1.13;;
3311;SDS011;1668;49.648;8.570;2023-03-23T14:42:20;3.10;;;1.40;;
3311;SDS011;1668;49.648;8.570;2023-03-23T14:44:51;1.37;;;1.03;;
3311;SDS011;1668;49.648;8.570;2023-03-23T14:47:22;2.60;;;1.27;;
3311;SDS011;1668;49.648;8.570;2023-03-23T14:49:52;2.03;;;1.17;;
3311;SDS011;1668;49.648;8.570;2023-03-23T14:52:21;1.77;;;1.20;;
3311;SDS011;1668;49.648;8.570;2023-03-23T14:54:50;3.57;;;1.00;;
3311;SDS011;1668;49.648;8.570;2023-03-23T14:57:18;4.43;;;1.40;;
3311;SDS011;1668;49.648;8.570;2023-03-23T14:59:51;1.33;;;1.20;;
3311;SDS011;1668;49.648;8.570;2023-03-23T15:02:20;2.63;;;1.47;;
3311;SDS011;1668;49.648;8.570;2023-03-23T15:04:52;3.50;;;1.50;;
3311;SDS011;1668;49.648;8.570;2023-03-23T15:07:22;2.40;;;1.20;;
3311;SDS011;1668;49.648;8.570;2023-03-23T15:09:50;2.03;;;1.30;;
3311;SDS011;1668;49.648;8.570;2023-03-23T15:12:19;2.07;;;0.90;;
3311;SDS011;1668;49.648;8.570;2023-03-23T15:14:49;2.27;;;0.90;;
3311;SDS011;1668;49.648;8.570;2023-03-23T15:17:18;1.20;;;1.10;;
3311;SDS011;1668;49.648;8.570;2023-03-23T15:19:47;2.10;;;1.00;;
3311;SDS011;1668;49.648;8.570;2023-03-23T15:22:18;1.20;;;1.10;;
3311;SDS011;1668;49.648;8.570;2023-03-23T15:24:47;1.70;;;1.10;;
3311;SDS011;1668;49.648;8.570;2023-03-23T15:27:15;1.37;;;0.80;;
3311;SDS011;1668;49.648;8.570;2023-03-23T15:29:47;1.93;;;0.87;;
3311;SDS011;1668;49.648;8.570;2023-03-23T15:32:25;2.50;;;0.90;;
3311;SDS011;1668;49.648;8.570;2023-03-23T15:34:55;1.40;;;0.80;;
3311;SDS011;1668;49.648;8.570;2023-03-23T15:37:25;4.07;;;1.10;;
3311;SDS011;1668;49.648;8.570;2023-03-23T15:39:53;2.27;;;1.10;;
3311;SDS011;1668;49.648;8.570;2023-03-23T15:42:22;1.20;;;0.90;;
3311;SDS011;1668;49.648;8.570;2023-03-23T15:44:55;1.67;;;1.10;;